Time;durP1;ratioP1;P1;durP2;ratioP2;P2;SDS_P1;SDS_P2;PMS_P1;PMS_P2;Temp;Humidity;BMP_temperature;BMP_pressure;BME280_temperature;BME280_humidity;BME280_pressure;Samples;Min_cycle;Max_cycle;Signal;HPM_P1;HPM_P2
2021/12/17 00:07:08;;;;;;;2.73;1.57;;;3.60;99.90;2.60;101405;;;;593702;241;24083;-75
2021/12/17 00:09:36;;;;;;;14.03;3.00;;;3.60;99.90;2.60;101408;;;;575335;245;24095;-75
2021/12/17 00:12:04;;;;;;;23.20;3.17;;;3.60;99.90;2.60;101410;;;;575088;245;24181;-74
2021/12/17 00:14:37;;;;;;;8.57;1.93;;;3.50;99.90;2.60;101394;;;;565015;250;24124;-76
2021/12/17 00:17:03;;;;;;;12.27;2.53;;;3.60;99.90;2.60;101383;;;;573866;250;24148;-77
2021/12/17 00:46:34;;;;;;;4.53;1.73;;;3.50;99.90;2.40;101406;;;;576033;245;24075;-73
2021/12/17 00:49:27;;;;;;;13.13;3.07;;;3.40;99.90;2.40;101414;;;;575653;245;24124;-73
2021/12/17 00:51:58;;;;;;;12.43;2.10;;;3.50;99.90;2.40;101408;;;;574961;246;24106;-73
2021/12/17 00:54:30;;;;;;;7.40;2.10;;;3.40;99.90;2.40;101420;;;;574397;246;24107;-74
2021/12/17 00:56:51;;;;;;;5.73;2.00;;;3.40;99.90;2.40;101427;;;;574274;246;24119;-74
2021/12/17 00:59:19;;;;;;;14.10;2.67;;;3.40;99.90;2.40;101421;;;;574985;245;24082;-77
2021/12/17 01:01:47;;;;;;;5.80;1.60;;;3.40;99.90;2.40;101432;;;;575846;245;25264;-78
2021/12/17 01:04:15;;;;;;;12.70;2.00;;;3.40;99.90;2.40;101425;;;;575797;245;24095;-78
2021/12/17 01:06:43;;;;;;;16.93;2.40;;;3.40;99.90;2.40;101434;;;;585614;241;24103;-78
2021/12/17 01:09:10;;;;;;;17.43;1.80;;;3.40;99.90;2.40;101440;;;;578856;241;24079;-76
2021/12/17 01:11:38;;;;;;;13.87;2.63;;;3.40;99.90;2.40;101437;;;;575906;245;24080;-77
2021/12/17 01:14:06;;;;;;;13.10;2.43;;;3.40;99.90;2.40;101427;;;;573028;250;24153;-77
2021/12/17 01:16:34;;;;;;;9.10;2.50;;;3.40;99.90;2.40;101440;;;;581959;245;24085;-77
2021/12/17 01:19:14;;;;;;;11.20;2.00;;;3.40;99.90;2.40;101443;;;;573125;246;25159;-77
2021/12/17 01:21:38;;;;;;;10.90;2.80;;;3.40;99.90;2.40;101434;;;;579102;246;24146;-76
2021/12/17 01:24:16;;;;;;;8.03;2.30;;;3.40;99.90;2.40;101430;;;;573003;246;24082;-75
2021/12/17 01:42:52;;;;;;;14.10;2.77;;;3.30;99.90;2.30;101430;;;;574240;246;24057;-75
2021/12/17 01:45:26;;;;;;;6.60;2.07;;;3.30;99.90;2.30;101431;;;;572903;246;24058;-78
2021/12/17 01:47:48;;;;;;;4.10;1.43;;;3.30;99.90;2.30;101441;;;;572498;246;24077;-77
2021/12/17 01:56:00;;;;;;;7.20;1.63;;;3.30;99.90;2.30;101427;;;;582598;246;24079;-74
2021/12/17 02:01:04;;;;;;;9.20;2.10;;;3.30;99.90;2.20;101433;;;;573817;246;24057;-78
2021/12/17 02:03:33;;;;;;;5.13;1.60;;;3.20;99.90;2.20;101433;;;;573782;246;24094;-74
2021/12/17 02:06:00;;;;;;;15.15;3.40;;;3.20;99.90;2.20;101430;;;;577215;246;35157;-75
2021/12/17 02:08:26;;;;;;;5.77;2.23;;;3.20;99.90;2.20;101425;;;;572152;246;24073;-75
2021/12/17 02:11:32;;;;;;;11.63;2.40;;;3.20;99.90;2.20;101430;;;;572091;246;24073;-76
2021/12/17 02:30:05;;;;;;;12.73;2.03;;;3.00;99.90;2.00;101425;;;;582396;246;24043;-77
2021/12/17 02:32:22;;;;;;;10.67;1.53;;;3.00;99.90;2.00;101416;;;;571092;246;24081;-74
2021/12/17 02:37:36;;;;;;;11.20;1.93;;;3.00;99.90;2.00;101424;;;;582099;246;24123;-77
2021/12/17 02:45:33;;;;;;;4.47;1.33;;;2.90;99.90;1.90;101436;;;;582469;246;24065;-76
2021/12/17 02:48:09;;;;;;;9.13;1.60;;;2.90;99.90;1.90;101443;;;;573967;246;24064;-77
2021/12/17 02:50:41;;;;;;;12.83;2.47;;;2.90;99.90;1.90;101453;;;;574680;246;24087;-76
2021/12/17 02:53:08;;;;;;;10.30;2.20;;;2.90;99.90;1.80;101447;;;;565884;250;24181;-74
2021/12/17 02:55:37;;;;;;;5.80;1.63;;;2.80;99.90;1.80;101447;;;;574156;246;24137;-74
2021/12/17 02:58:04;;;;;;;9.37;1.90;;;2.80;99.90;1.80;101443;;;;573955;246;24068;-76
2021/12/17 03:00:33;;;;;;;4.07;1.73;;;2.80;99.90;1.80;101442;;;;574187;246;24073;-75
2021/12/17 03:03:01;;;;;;;9.30;1.80;;;2.80;99.90;1.80;101446;;;;580924;243;24096;-75
2021/12/17 03:05:29;;;;;;;5.73;1.63;;;2.80;99.90;1.70;101446;;;;573667;246;24089;-74
2021/12/17 03:07:57;;;;;;;10.00;2.20;;;2.70;99.90;1.70;101440;;;;582214;246;24074;-75
2021/12/17 03:10:25;;;;;;;6.53;2.00;;;2.70;99.90;1.70;101446;;;;573572;246;24071;-75
2021/12/17 03:13:01;;;;;;;8.83;1.63;;;2.70;99.90;1.60;101453;;;;572393;246;24067;-75
2021/12/17 03:18:48;;;;;;;9.10;1.93;;;2.70;99.90;1.70;101438;;;;593039;236;24060;-76
2021/12/17 03:23:39;;;;;;;6.93;2.30;;;2.60;99.90;1.60;101437;;;;591567;243;26136;-75
2021/12/17 03:26:01;;;;;;;8.43;2.30;;;2.60;99.90;1.60;101435;;;;588589;243;24078;-75
2021/12/17 03:28:29;;;;;;;13.63;2.97;;;2.60;99.90;1.60;101432;;;;582990;246;24130;-75
2021/12/17 03:31:00;;;;;;;6.10;1.90;;;2.60;99.90;1.50;101431;;;;572893;247;24125;-76
2021/12/17 03:33:25;;;;;;;6.70;1.83;;;2.50;99.90;1.50;101425;;;;583315;246;24135;-76
2021/12/17 03:35:53;;;;;;;10.83;3.03;;;2.50;99.90;1.50;101411;;;;572868;247;25193;-75
2021/12/17 03:38:21;;;;;;;7.17;2.10;;;2.50;99.90;1.40;101417;;;;578195;243;24123;-76
2021/12/17 03:40:53;;;;;;;13.20;2.87;;;2.50;99.90;1.40;101409;;;;572760;246;24122;-76
2021/12/17 03:43:23;;;;;;;7.17;2.17;;;2.50;99.90;1.40;101416;;;;563210;251;24122;-77
2021/12/17 03:45:44;;;;;;;14.17;2.90;;;2.40;99.90;1.40;101421;;;;563031;251;24116;-78
2021/12/17 03:48:12;;;;;;;14.40;2.83;;;2.40;99.90;1.40;101410;;;;564024;250;24124;-78
2021/12/17 03:50:41;;;;;;;13.63;2.73;;;2.40;99.90;1.40;101411;;;;586242;241;24077;-78
2021/12/17 03:53:10;;;;;;;11.30;2.63;;;2.40;99.90;1.40;101421;;;;564596;248;24166;-78
2021/12/17 03:55:38;;;;;;;11.30;2.97;;;2.40;99.90;1.40;101414;;;;564775;250;24135;-78
2021/12/17 03:58:06;;;;;;;4.70;2.13;;;2.40;99.90;1.40;101422;;;;564885;248;24209;-77
2021/12/17 04:00:33;;;;;;;12.03;2.97;;;2.40;99.90;1.40;101414;;;;566167;249;24127;-78
2021/12/17 04:03:06;;;;;;;10.57;2.23;;;2.40;99.90;1.40;101413;;;;576005;245;24091;-78
2021/12/17 04:05:33;;;;;;;7.57;1.57;;;2.40;99.90;1.40;101414;;;;566135;249;24108;-77
2021/12/17 04:07:58;;;;;;;5.70;1.87;;;2.40;99.90;1.40;101426;;;;565201;249;24126;-78
2021/12/17 04:10:28;;;;;;;10.77;2.17;;;2.50;99.90;1.40;101437;;;;565696;249;24113;-77
2021/12/17 04:12:59;;;;;;;6.40;2.13;;;2.50;99.90;1.40;101427;;;;565666;249;24127;-78
2021/12/17 04:15:42;;;;;;;6.77;2.10;;;2.40;99.90;1.40;101418;;;;565410;249;24109;-75
2021/12/17 04:17:55;;;;;;;9.83;2.20;;;2.50;99.90;1.50;101428;;;;564262;250;24115;-75
2021/12/17 04:20:20;;;;;;;5.00;1.60;;;2.50;99.90;1.40;101442;;;;565733;250;24137;-76
2021/12/17 04:22:48;;;;;;;7.37;1.80;;;2.50;99.90;1.40;101438;;;;565857;250;24130;-74
2021/12/17 04:25:16;;;;;;;8.83;2.23;;;2.50;99.90;1.40;101447;;;;565820;250;25170;-74
2021/12/17 04:27:44;;;;;;;5.30;1.37;;;2.50;99.90;1.40;101447;;;;565891;250;24162;-75
2021/12/17 04:30:12;;;;;;;5.77;1.53;;;2.50;99.90;1.40;101453;;;;565884;250;24126;-74
2021/12/17 04:32:40;;;;;;;11.73;1.73;;;2.50;99.90;1.40;101451;;;;565838;250;24188;-76
2021/12/17 04:35:08;;;;;;;6.57;2.20;;;2.40;99.90;1.40;101437;;;;565470;250;24114;-75
2021/12/17 04:37:35;;;;;;;4.77;1.50;;;2.50;99.90;1.40;101441;;;;564823;250;24194;-75
2021/12/17 04:40:03;;;;;;;9.60;2.10;;;2.40;99.90;1.40;101442;;;;565207;250;24103;-75
2021/12/17 04:45:19;;;;;;;8.07;2.17;;;2.40;99.90;1.40;101446;;;;565246;250;24108;-75
2021/12/17 04:58:53;;;;;;;7.43;1.90;;;2.50;99.90;1.40;101455;;;;573741;249;24127;-77
2021/12/17 05:01:19;;;;;;;15.37;1.87;;;2.50;99.90;1.40;101448;;;;574386;245;24094;-77
2021/12/17 05:03:47;;;;;;;1.80;1.43;;;2.50;99.90;1.50;101454;;;;565024;248;24117;-77
2021/12/17 05:06:19;;;;;;;5.17;1.93;;;2.50;99.90;1.50;101450;;;;564683;250;24121;-77
2021/12/17 05:08:43;;;;;;;2.40;1.50;;;2.50;99.90;1.50;101445;;;;574569;246;24262;-77
2021/12/17 05:11:23;;;;;;;12.97;2.77;;;2.50;99.90;1.50;101440;;;;585727;244;24102;-78
2021/12/17 05:21:41;;;;;;;14.23;2.62;;;2.50;99.90;1.50;101435;;;;580150;245;35312;-76
2021/12/17 05:24:09;;;;;;;9.23;2.10;;;2.50;99.90;1.50;101427;;;;561602;254;24192;-75
2021/12/17 05:26:37;;;;;;;7.67;2.30;;;2.60;99.90;1.50;101420;;;;566214;249;24105;-75
2021/12/17 05:29:05;;;;;;;10.73;1.90;;;2.60;99.90;1.60;101434;;;;564229;254;24197;-75
2021/12/17 05:31:33;;;;;;;3.07;1.23;;;2.60;99.90;1.60;101443;;;;556098;254;24103;-74
2021/12/17 05:34:01;;;;;;;9.73;2.47;;;2.60;99.90;1.60;101444;;;;565487;250;24162;-74
2021/12/17 05:36:29;;;;;;;3.20;1.30;;;2.60;99.90;1.60;101432;;;;563980;248;24119;-75
2021/12/17 05:38:57;;;;;;;5.90;2.20;;;2.60;99.90;1.60;101449;;;;574149;250;24105;-75
2021/12/17 05:41:25;;;;;;;2.93;1.23;;;2.60;99.90;1.60;101447;;;;565898;250;25109;-75
2021/12/17 05:43:55;;;;;;;8.90;2.53;;;2.60;99.90;1.60;101439;;;;565559;250;24132;-75
2021/12/17 05:46:36;;;;;;;9.97;1.60;;;2.60;99.90;1.50;101430;;;;565394;250;24090;-76
2021/12/17 05:48:50;;;;;;;11.43;2.07;;;2.60;99.90;1.40;101428;;;;564174;250;24104;-75
2021/12/17 05:51:18;;;;;;;10.70;2.23;;;2.50;99.90;1.40;101433;;;;566287;248;24093;-75
2021/12/17 05:53:46;;;;;;;3.27;1.00;;;2.40;99.90;1.40;101427;;;;566781;250;24077;-75
2021/12/17 05:56:14;;;;;;;7.20;1.50;;;2.40;99.90;1.40;101440;;;;589111;240;24060;-76
2021/12/17 05:58:42;;;;;;;5.37;2.23;;;2.40;99.90;1.40;101431;;;;589060;240;24046;-77
2021/12/17 06:01:10;;;;;;;12.50;2.40;;;2.40;99.90;1.40;101425;;;;589217;240;24053;-77
2021/12/17 06:03:38;;;;;;;5.80;2.23;;;2.40;99.90;1.40;101432;;;;589079;240;24062;-77
2021/12/17 06:06:06;;;;;;;11.93;2.00;;;2.40;99.90;1.40;101437;;;;589274;240;24108;-77
2021/12/17 06:08:34;;;;;;;8.90;2.50;;;2.40;99.90;1.40;101445;;;;589172;240;24049;-77
2021/12/17 06:11:02;;;;;;;2.87;1.70;;;2.40;99.90;1.40;101445;;;;589594;240;24055;-76
2021/12/17 06:13:30;;;;;;;5.93;1.87;;;2.40;99.90;1.40;101450;;;;589190;239;24106;-77
2021/12/17 06:15:58;;;;;;;1.40;1.27;;;2.40;99.90;1.40;101453;;;;589118;240;24088;-76
2021/12/17 06:18:26;;;;;;;7.43;2.10;;;2.40;99.90;1.40;101458;;;;589339;240;24082;-77
2021/12/17 06:20:54;;;;;;;4.70;1.73;;;2.40;99.90;1.40;101468;;;;589177;240;24051;-78
2021/12/17 06:23:22;;;;;;;10.53;2.30;;;2.40;99.90;1.40;101469;;;;600532;238;24040;-77
2021/12/17 06:25:50;;;;;;;9.70;2.10;;;2.40;99.90;1.40;101469;;;;590643;239;24030;-77
2021/12/17 06:28:18;;;;;;;4.27;1.80;;;2.40;99.90;1.40;101471;;;;581542;243;24057;-77
2021/12/17 06:30:46;;;;;;;2.43;1.23;;;2.40;99.90;1.40;101473;;;;582303;239;24044;-77
2021/12/17 06:33:13;;;;;;;5.27;2.03;;;2.40;99.90;1.40;101490;;;;575336;245;24105;-76
2021/12/17 06:35:41;;;;;;;7.03;2.23;;;2.40;99.90;1.40;101475;;;;555147;254;24162;-76
2021/12/17 06:38:09;;;;;;;1.33;1.23;;;2.40;99.90;1.40;101478;;;;569555;248;24098;-74
2021/12/17 06:40:37;;;;;;;3.07;1.57;;;2.40;99.90;1.40;101480;;;;569725;248;24073;-75
2021/12/17 06:43:05;;;;;;;9.20;2.10;;;2.50;99.90;1.40;101479;;;;569408;248;24088;-74
2021/12/17 06:45:50;;;;;;;8.40;2.37;;;2.50;99.90;1.50;101494;;;;569209;248;24121;-77
2021/12/17 06:48:09;;;;;;;4.57;2.17;;;2.50;99.90;1.40;101489;;;;569393;248;24094;-77
2021/12/17 06:59:05;;;;;;;1.83;1.20;;;2.50;99.90;1.40;101482;;;;567567;250;24111;-75
2021/12/17 07:17:25;;;;;;;9.27;2.83;;;2.50;99.90;1.50;101492;;;;555301;254;24143;-76
2021/12/17 07:23:24;;;;;;;5.30;2.30;;;2.50;99.90;1.50;101488;;;;565526;250;24114;-76
2021/12/17 07:32:06;;;;;;;7.97;3.10;;;2.50;99.90;1.50;101502;;;;565709;250;24189;-77
2021/12/17 07:33:20;;;;;;;10.40;2.17;;;2.50;99.90;1.50;101501;;;;556209;253;24134;-78
2021/12/17 07:35:50;;;;;;;4.67;2.77;;;2.60;99.90;1.50;101503;;;;555439;254;24225;-77
2021/12/17 07:41:03;;;;;;;7.50;2.33;;;2.60;99.90;1.60;101514;;;;575795;245;24055;-74
2021/12/17 07:43:38;;;;;;;9.00;2.53;;;2.60;99.90;1.60;101522;;;;575255;245;24051;-77
2021/12/17 07:46:04;;;;;;;6.03;2.20;;;2.60;99.90;1.60;101523;;;;586462;240;24017;-77
2021/12/17 07:48:34;;;;;;;4.17;1.47;;;2.70;99.90;1.70;101517;;;;580962;241;24052;-77
2021/12/17 07:50:59;;;;;;;5.00;2.80;;;2.70;99.90;1.70;101520;;;;585095;241;24018;-77
2021/12/17 07:53:30;;;;;;;5.23;2.27;;;2.70;99.90;1.80;101522;;;;594660;241;24062;-77
2021/12/17 07:55:55;;;;;;;7.87;2.40;;;2.80;99.90;1.80;101523;;;;585646;241;24091;-75
2021/12/17 07:58:23;;;;;;;4.17;1.80;;;2.80;99.90;1.80;101522;;;;580957;246;27258;-76
2021/12/17 08:00:51;;;;;;;11.77;2.40;;;2.80;99.90;1.80;101519;;;;574997;246;24071;-74
2021/12/17 08:03:20;;;;;;;5.23;1.83;;;2.90;99.90;1.90;101525;;;;575077;245;24069;-75
2021/12/17 08:05:47;;;;;;;5.77;1.63;;;2.90;99.90;1.90;101526;;;;574943;246;24063;-74
2021/12/17 08:08:15;;;;;;;3.93;2.77;;;2.90;99.90;1.90;101530;;;;565434;250;24097;-76
2021/12/17 08:10:43;;;;;;;6.10;2.13;;;2.90;99.90;2.00;101541;;;;574872;245;24094;-77
2021/12/17 08:13:14;;;;;;;4.23;2.53;;;3.00;99.90;2.00;101525;;;;567425;250;24125;-77
2021/12/17 08:15:47;;;;;;;4.20;1.67;;;3.00;99.90;2.00;101520;;;;575263;246;24091;-78
2021/12/17 08:26:20;;;;;;;9.90;2.80;;;3.10;99.90;2.20;101526;;;;599144;238;24020;-75
2021/12/17 08:28:56;;;;;;;5.63;2.43;;;3.20;99.90;2.20;101528;;;;589595;240;24055;-75
2021/12/17 08:31:20;;;;;;;8.23;3.40;;;3.20;99.90;2.20;101526;;;;589805;240;24127;-79
2021/12/17 08:33:45;;;;;;;6.43;3.20;;;3.20;99.90;2.30;101532;;;;589504;240;24129;-78
2021/12/17 08:36:14;;;;;;;12.27;5.17;;;3.30;99.90;2.40;101527;;;;590182;239;24029;-75
2021/12/17 08:38:44;;;;;;;8.37;2.33;;;3.30;99.90;2.40;101524;;;;590085;240;24040;-78
2021/12/17 08:41:13;;;;;;;7.73;4.17;;;3.40;99.90;2.40;101525;;;;590213;240;24048;-79
2021/12/17 08:43:41;;;;;;;5.27;3.43;;;3.40;99.90;2.50;101521;;;;590069;240;24052;-79
2021/12/17 08:46:09;;;;;;;9.77;2.73;;;3.50;99.90;2.50;101528;;;;591625;239;24069;-77
2021/12/17 08:48:37;;;;;;;3.43;2.57;;;3.50;99.90;2.50;101527;;;;591251;239;24036;-79
2021/12/17 08:51:09;;;;;;;7.60;2.93;;;3.60;99.90;2.60;101525;;;;600212;238;24075;-76
2021/12/17 08:53:37;;;;;;;6.87;3.77;;;3.50;99.90;2.60;101528;;;;599462;239;24112;-77
2021/12/17 08:56:01;;;;;;;3.13;1.70;;;3.60;99.90;2.70;101538;;;;589946;239;24110;-76
2021/12/17 08:58:32;;;;;;;7.63;2.70;;;3.60;99.90;2.70;101539;;;;590191;239;24058;-76
2021/12/17 09:00:57;;;;;;;6.77;3.13;;;3.70;99.90;2.70;101537;;;;590212;239;24072;-75
2021/12/17 09:03:25;;;;;;;7.83;3.40;;;3.70;99.90;2.80;101535;;;;599852;238;24099;-75
2021/12/17 09:05:53;;;;;;;8.63;2.90;;;3.80;99.90;2.80;101533;;;;590471;240;24097;-75
2021/12/17 09:08:22;;;;;;;8.80;3.60;;;3.80;99.90;2.90;101531;;;;590076;240;24038;-75
2021/12/17 09:10:52;;;;;;;8.67;3.10;;;3.80;99.90;2.90;101534;;;;590123;240;24032;-78
2021/12/17 09:13:17;;;;;;;4.17;2.20;;;3.90;99.90;3.00;101534;;;;590025;240;24041;-75
2021/12/17 09:15:45;;;;;;;7.83;3.10;;;3.90;99.90;3.00;101529;;;;588047;242;24055;-78
2021/12/17 09:18:13;;;;;;;14.40;3.33;;;3.90;99.90;3.00;101546;;;;584063;236;24026;-77
2021/12/17 09:20:41;;;;;;;25.60;4.63;;;4.00;99.90;3.10;101551;;;;596460;237;24015;-76
2021/12/17 09:23:09;;;;;;;21.17;4.87;;;4.00;99.90;3.10;101544;;;;596402;237;24006;-75
2021/12/17 09:25:37;;;;;;;9.63;3.37;;;4.10;99.90;3.10;101545;;;;596245;237;25035;-77
2021/12/17 09:28:05;;;;;;;7.80;3.27;;;4.10;99.90;3.20;101545;;;;596369;237;24016;-75
2021/12/17 09:30:33;;;;;;;5.70;2.77;;;4.10;99.90;3.20;101554;;;;598902;237;24030;-76
2021/12/17 09:33:01;;;;;;;5.80;2.33;;;4.20;99.90;3.30;101561;;;;608442;236;23994;-77
2021/12/17 09:35:29;;;;;;;5.40;2.10;;;4.20;99.90;3.30;101570;;;;596407;237;24011;-77
2021/12/17 09:37:57;;;;;;;8.00;2.90;;;4.20;99.90;3.40;101572;;;;599319;237;24046;-78
2021/12/17 09:40:25;;;;;;;8.63;2.90;;;4.30;99.90;3.40;101574;;;;596666;237;24072;-78
2021/12/17 09:42:53;;;;;;;12.73;2.70;;;4.40;99.90;3.40;101568;;;;596727;237;24039;-79
2021/12/17 09:45:24;;;;;;;6.55;3.30;;;4.40;99.90;3.50;101569;;;;603450;236;34865;-79
2021/12/17 09:47:49;;;;;;;6.83;2.10;;;4.50;99.90;3.50;101581;;;;596522;237;24136;-76
2021/12/17 09:50:17;;;;;;;6.73;2.20;;;4.50;99.90;3.60;101579;;;;596678;237;24052;-77
2021/12/17 09:52:45;;;;;;;12.43;2.83;;;4.50;99.90;3.60;101577;;;;595402;237;24029;-76
2021/12/17 09:55:13;;;;;;;5.40;1.53;;;4.60;99.90;3.60;101580;;;;596714;237;24007;-76
2021/12/17 09:57:41;;;;;;;5.33;1.73;;;4.60;99.90;3.70;101578;;;;600709;236;24011;-77
2021/12/17 10:00:20;;;;;;;5.63;1.83;;;4.60;99.90;3.70;101587;;;;597897;236;24034;-76
2021/12/17 10:02:54;;;;;;;4.87;1.10;;;4.70;99.90;3.80;101577;;;;600156;236;24010;-77
2021/12/17 10:05:22;;;;;;;3.40;1.50;;;4.70;99.90;3.80;101583;;;;597343;236;25055;-78
2021/12/17 10:07:56;;;;;;;4.30;1.20;;;4.70;99.90;3.80;101580;;;;595456;236;23999;-79
2021/12/17 10:10:36;;;;;;;8.60;2.03;;;4.80;99.90;3.80;101584;;;;595371;236;25094;-78
2021/12/17 10:13:13;;;;;;;3.40;1.07;;;4.80;99.90;3.80;101593;;;;595425;236;24039;-78
2021/12/17 10:15:44;;;;;;;2.53;1.27;;;4.80;99.90;3.90;101595;;;;599082;236;24017;-74
2021/12/17 10:18:15;;;;;;;1.50;1.07;;;4.80;99.90;3.90;101571;;;;599181;236;24007;-78
2021/12/17 10:20:52;;;;;;;13.30;2.37;;;4.90;99.90;3.90;101566;;;;596409;236;24017;-78
2021/12/17 10:23:21;;;;;;;3.93;1.20;;;4.90;99.90;4.00;101571;;;;586982;240;24056;-77
2021/12/17 10:25:52;;;;;;;4.97;1.50;;;4.90;99.90;4.00;101562;;;;587605;239;24083;-78
2021/12/17 10:28:18;;;;;;;2.27;0.90;;;5.00;99.90;4.00;101569;;;;578275;244;24069;-76
2021/12/17 10:30:48;;;;;;;3.60;1.23;;;5.00;99.90;4.00;101559;;;;578565;244;24163;-76
2021/12/17 10:33:14;;;;;;;4.83;1.40;;;5.00;99.90;4.00;101547;;;;578472;244;24084;-75
2021/12/17 10:35:45;;;;;;;8.70;1.37;;;5.00;99.90;4.10;101542;;;;575775;244;24063;-76
2021/12/17 10:38:12;;;;;;;1.33;1.23;;;5.00;99.90;4.10;101540;;;;577722;244;24157;-79
2021/12/17 10:40:50;;;;;;;5.07;1.77;;;5.10;99.90;4.20;101548;;;;577828;244;24084;-77
2021/12/17 10:43:20;;;;;;;7.20;1.47;;;5.10;99.90;4.20;101544;;;;578457;244;24058;-77
2021/12/17 10:45:46;;;;;;;5.53;1.63;;;5.10;99.90;4.20;101544;;;;578840;243;25172;-76
2021/12/17 10:51:11;;;;;;;24.63;2.63;;;5.10;99.90;4.20;101541;;;;587537;239;24068;-78
2021/12/17 10:53:37;;;;;;;1.40;0.87;;;5.10;99.90;4.20;101553;;;;589177;241;24058;-77
2021/12/17 10:56:04;;;;;;;2.03;1.27;;;5.10;99.90;4.20;101552;;;;578275;244;24058;-76
2021/12/17 10:58:32;;;;;;;12.50;2.40;;;5.10;99.90;4.20;101545;;;;578231;244;24084;-76
2021/12/17 11:01:02;;;;;;;5.17;1.80;;;5.10;99.90;4.30;101546;;;;577946;244;24101;-77
2021/12/17 11:03:29;;;;;;;3.67;1.27;;;5.20;99.90;4.30;101548;;;;575170;244;24091;-77
2021/12/17 11:05:57;;;;;;;4.13;1.13;;;5.20;99.90;4.30;101549;;;;578112;244;24117;-78
2021/12/17 11:08:28;;;;;;;3.43;1.80;;;5.20;99.90;4.30;101542;;;;578515;243;24093;-75
2021/12/17 11:10:57;;;;;;;6.67;1.30;;;5.20;99.90;4.30;101541;;;;576271;244;24116;-76
2021/12/17 11:13:21;;;;;;;2.17;1.30;;;5.20;99.90;4.30;101540;;;;569726;243;24106;-76
2021/12/17 11:15:48;;;;;;;4.17;1.33;;;5.20;99.90;4.30;101519;;;;582965;246;24164;-77
2021/12/17 11:18:18;;;;;;;8.10;1.80;;;5.20;99.90;4.30;101533;;;;575979;245;24267;-77
2021/12/17 11:20:44;;;;;;;4.80;1.07;;;5.20;99.90;4.30;101528;;;;575220;245;24112;-77
2021/12/17 11:23:14;;;;;;;6.47;1.10;;;5.20;99.90;4.30;101538;;;;566965;248;24127;-76
2021/12/17 11:25:46;;;;;;;2.37;1.30;;;5.20;99.90;4.30;101535;;;;569376;246;24095;-76
2021/12/17 11:28:17;;;;;;;4.37;1.27;;;5.20;99.90;4.30;101536;;;;579436;244;24072;-76
2021/12/17 11:30:42;;;;;;;2.00;1.00;;;5.30;99.90;4.40;101549;;;;575813;244;24079;-74
2021/12/17 11:33:11;;;;;;;3.60;1.17;;;5.20;99.90;4.40;101541;;;;578631;242;24079;-77
2021/12/17 11:35:42;;;;;;;2.60;1.27;;;5.30;99.90;4.40;101540;;;;588784;241;24111;-76
2021/12/17 11:38:24;;;;;;;3.67;1.27;;;5.30;99.90;4.30;101550;;;;579267;243;24159;-77
2021/12/17 11:40:55;;;;;;;4.33;1.57;;;5.30;99.90;4.30;101546;;;;579829;243;24097;-77
2021/12/17 11:43:52;;;;;;;1.87;1.20;;;5.20;99.90;4.30;101552;;;;579928;244;24122;-75
2021/12/17 11:46:17;;;;;;;3.67;1.37;;;5.30;99.90;4.30;101544;;;;589793;240;24054;-75
2021/12/17 11:48:54;;;;;;;2.67;1.27;;;5.30;99.90;4.30;101548;;;;589458;239;24116;-75
2021/12/17 11:51:25;;;;;;;2.53;1.20;;;5.20;99.90;4.30;101548;;;;598685;239;24086;-76
2021/12/17 11:54:08;;;;;;;6.43;1.60;;;5.20;99.90;4.30;101548;;;;589574;240;24091;-78
2021/12/17 11:56:36;;;;;;;1.83;1.00;;;5.20;99.90;4.30;101542;;;;599214;237;24050;-78
2021/12/17 11:59:04;;;;;;;2.40;2.00;;;5.20;99.90;4.30;101549;;;;589402;240;24045;-78
2021/12/17 12:01:50;;;;;;;2.13;1.50;;;5.20;99.90;4.30;101545;;;;598958;237;24060;-76
2021/12/17 12:04:34;;;;;;;5.40;1.27;;;5.20;99.90;4.30;101547;;;;599251;240;24068;-77
2021/12/17 12:07:20;;;;;;;3.13;1.10;;;5.20;99.90;4.30;101549;;;;579153;241;24076;-77
2021/12/17 12:09:59;;;;;;;10.73;1.40;;;5.20;99.90;4.30;101558;;;;587689;244;24089;-78
2021/12/17 12:12:40;;;;;;;3.80;1.20;;;5.20;99.90;4.30;101563;;;;579578;244;24053;-75
2021/12/17 12:15:27;;;;;;;27.57;3.53;;;5.20;99.90;4.30;101551;;;;568019;248;24139;-75
2021/12/17 12:18:03;;;;;;;3.00;1.07;;;5.20;99.90;4.30;101564;;;;568992;248;24097;-77
2021/12/17 12:20:51;;;;;;;6.13;1.30;;;5.20;99.90;4.30;101555;;;;569796;248;24148;-77
2021/12/17 12:23:32;;;;;;;3.80;1.50;;;5.20;99.90;4.30;101557;;;;580140;243;24078;-76
2021/12/17 12:26:07;;;;;;;4.30;1.83;;;5.20;99.90;4.30;101545;;;;566409;248;24236;-76
2021/12/17 12:28:52;;;;;;;3.43;1.33;;;5.20;99.90;4.30;101555;;;;569443;248;24089;-76
2021/12/17 12:31:30;;;;;;;3.50;2.00;;;5.20;99.90;4.20;101554;;;;579564;243;24205;-76
2021/12/17 12:34:06;;;;;;;2.83;1.30;;;5.10;99.90;4.20;101557;;;;568406;248;24132;-76
2021/12/17 12:37:00;;;;;;;8.80;2.03;;;5.10;99.90;4.20;101554;;;;569384;248;24125;-75
2021/12/17 12:39:42;;;;;;;7.40;2.10;;;5.10;99.90;4.10;101559;;;;588787;244;24075;-75
2021/12/17 12:42:32;;;;;;;4.20;1.50;;;5.00;99.90;4.10;101565;;;;569746;248;24204;-75
2021/12/17 12:45:00;;;;;;;3.40;1.53;;;5.00;99.90;4.00;101579;;;;579968;244;24082;-74
2021/12/17 12:47:29;;;;;;;6.63;1.73;;;4.90;99.90;4.00;101574;;;;580531;241;24075;-74
2021/12/17 12:50:06;;;;;;;28.17;3.63;;;4.90;99.90;3.90;101585;;;;580184;242;26278;-75
2021/12/17 12:53:09;;;;;;;2.40;0.93;;;4.90;99.90;4.00;101589;;;;579561;243;24061;-76
2021/12/17 12:55:27;;;;;;;3.50;1.37;;;4.90;99.90;3.90;101591;;;;577547;244;24075;-75
2021/12/17 12:58:04;;;;;;;5.17;1.47;;;4.80;99.90;3.90;101598;;;;588277;241;24066;-74
2021/12/17 13:00:37;;;;;;;4.60;1.27;;;4.80;99.90;3.90;101602;;;;579651;244;24054;-76
2021/12/17 13:03:10;;;;;;;4.77;1.30;;;4.80;99.90;3.90;101592;;;;578808;244;24159;-75
2021/12/17 13:05:38;;;;;;;6.10;1.33;;;4.80;99.90;3.80;101582;;;;579168;244;24080;-76
2021/12/17 13:08:07;;;;;;;2.90;1.60;;;4.80;99.90;3.80;101584;;;;588300;241;24093;-75
2021/12/17 13:10:36;;;;;;;3.23;1.70;;;4.70;99.90;3.80;101589;;;;578722;244;24062;-75
2021/12/17 13:13:18;;;;;;;6.93;2.53;;;4.70;99.90;3.80;101582;;;;578213;244;24082;-74
2021/12/17 13:15:46;;;;;;;6.23;1.83;;;4.70;99.90;3.80;101586;;;;578734;244;24073;-76
2021/12/17 13:21:01;;;;;;;6.63;1.90;;;4.60;99.90;3.70;101618;;;;572587;246;24084;-76
2021/12/17 13:23:23;;;;;;;8.93;2.20;;;4.60;99.90;3.70;101619;;;;573383;246;25157;-78
2021/12/17 13:26:06;;;;;;;12.73;3.65;;;4.60;99.90;3.70;101632;;;;568735;246;35462;-78
2021/12/17 13:28:55;;;;;;;67.33;9.10;;;4.60;99.90;3.60;101639;;;;581342;246;24123;-77
2021/12/17 13:31:50;;;;;;;5.80;2.73;;;4.60;99.90;3.60;101644;;;;574858;245;24086;-77
2021/12/17 13:34:38;;;;;;;18.07;4.87;;;4.50;99.90;3.60;101646;;;;575535;246;24087;-77
2021/12/17 13:37:27;;;;;;;3.23;1.50;;;4.50;99.90;3.50;101637;;;;574502;246;24133;-79
2021/12/17 13:39:55;;;;;;;6.50;2.53;;;4.50;99.90;3.40;101635;;;;583755;246;24105;-81
2021/12/17 13:42:27;;;;;;;6.67;1.50;;;4.30;99.90;3.40;101639;;;;574377;246;24149;-80
2021/12/17 13:44:57;;;;;;;7.10;1.97;;;4.30;99.90;3.30;101638;;;;588807;239;24111;-78
2021/12/17 13:47:45;;;;;;;9.00;2.70;;;4.30;99.90;3.30;101633;;;;569781;248;24057;-80
2021/12/17 13:50:28;;;;;;;11.13;3.23;;;4.20;99.90;3.30;101632;;;;579859;244;24065;-78
2021/12/17 13:52:54;;;;;;;3.37;1.27;;;4.20;99.90;3.20;101647;;;;579789;241;24064;-75
2021/12/17 13:55:37;;;;;;;10.87;2.80;;;4.20;99.90;3.20;101634;;;;579607;243;24122;-76
2021/12/17 13:58:14;;;;;;;22.45;4.20;;;4.10;99.90;3.10;101646;;;;574735;241;35136;-78
2021/12/17 14:00:42;;;;;;;14.97;2.77;;;4.10;99.90;3.10;101654;;;;579874;244;24100;-75
2021/12/17 14:03:11;;;;;;;9.00;2.60;;;4.00;99.90;3.00;101654;;;;579339;244;24158;-75
2021/12/17 14:05:45;;;;;;;4.60;1.67;;;4.00;99.90;3.00;101670;;;;569446;248;24144;-76
2021/12/17 14:08:09;;;;;;;5.37;1.73;;;3.90;99.90;3.00;101667;;;;579056;243;24087;-76
2021/12/17 14:10:37;;;;;;;4.53;1.90;;;3.90;99.90;3.00;101663;;;;579155;243;24067;-77
2021/12/17 14:13:05;;;;;;;13.10;2.70;;;3.90;99.90;2.90;101667;;;;579271;241;24107;-77
2021/12/17 14:15:33;;;;;;;14.17;2.07;;;3.90;99.90;2.90;101664;;;;579190;244;24106;-78
2021/12/17 14:18:04;;;;;;;14.20;2.47;;;3.90;99.90;2.90;101666;;;;579237;242;24092;-76